Main page
METAR-TAF:

METAR-TAF

Airports :

Christchurch, New Zealand

Christchurch International Airport

latitude: 43-29S, longitude: 172-33E, elevation: 38 m

Current weather observation

The report was made 42 minutes ago, at 16:30 UTC
Wind 3 kt from the North/Northeast
Temperature 2°C
Humidity 87%
Pressure 1013 hPa
Visibility 10 km or more

METAR: NZCH 261630Z AUTO 03003KT 9999 NCD 02/00 Q1013 NOSIG

Time: 05:12 (17:12 UTC)

Forecast

The report was made 6 hours and 7 minutes ago, at 11:05 UTC
Forecast valid from 26 at 12 UTC to 27 at 12 UTC
Wind 5 kt from the Northeast
Visibility 10 km or more
no clouds below 1500 m and no cumulonimbus
From 27 at 0400 UTC
Wind 10 kt from the Southwest
Visibility 10 km or more
Broken clouds at a height of 2000 ft
light rain

TAF: NZCH 261105Z 2612/2712 04005KT CAVOK FM270400 22010KT 9999 -RA BKN020

Weather observations and forecasts of more than 4000 airports (METAR and TAF reports).

The available stations are represented by yellow and red dots on the map.

Hover mouse over dot to see the name of the station.

Then click to see weather observations and forecasts.

To change the map : click on the green buttons with a black cross to zoom in, on the green button with a dash to zoom out, or on the green arrows for adjacent maps.


METAR-TAF: